createdAt,value
2023-02-06T00:00:26.449Z,9.90
2023-02-06T00:01:28.318Z,8.83
2023-02-06T00:02:29.662Z,8.40
2023-02-06T00:03:31.006Z,8.40
2023-02-06T00:04:32.348Z,8.20
2023-02-06T00:05:34.052Z,7.40
2023-02-06T00:06:35.838Z,7.70
2023-02-06T00:07:37.177Z,7.87
2023-02-06T00:08:38.547Z,7.73
2023-02-06T00:09:39.852Z,7.30
2023-02-06T00:10:41.143Z,7.73
2023-02-06T00:11:42.535Z,7.93
2023-02-06T00:12:43.878Z,7.73
2023-02-06T00:13:45.348Z,7.43
2023-02-06T00:14:46.670Z,7.70
2023-02-06T00:15:48.478Z,7.50
2023-02-06T00:16:49.864Z,7.50
2023-02-06T00:17:51.405Z,7.67
2023-02-06T00:18:53.720Z,7.10
2023-02-06T00:19:55.096Z,6.80
2023-02-06T00:20:56.424Z,7.10
2023-02-06T00:21:57.744Z,7.17
2023-02-06T00:22:59.080Z,7.73
2023-02-06T00:24:01.372Z,8.47
2023-02-06T00:25:03.101Z,7.67
2023-02-06T00:26:05.372Z,7.60
2023-02-06T00:27:07.561Z,7.67
2023-02-06T00:28:09.029Z,8.13
2023-02-06T00:29:10.634Z,7.73
2023-02-06T00:30:12.190Z,7.70
2023-02-06T00:31:13.923Z,8.23
2023-02-06T00:32:15.355Z,7.87
2023-02-06T00:33:16.687Z,7.60
2023-02-06T00:34:18.232Z,8.03
2023-02-06T00:35:19.701Z,7.47
2023-02-06T00:36:21.023Z,7.30
2023-02-06T00:37:22.349Z,7.80
2023-02-06T00:38:23.646Z,7.37
2023-02-06T00:39:25.905Z,7.50
2023-02-06T00:40:27.261Z,7.70
2023-02-06T00:41:28.624Z,7.07
2023-02-06T00:42:29.982Z,7.20
2023-02-06T00:43:31.391Z,7.40
2023-02-06T00:44:32.732Z,7.37
2023-02-06T00:45:34.517Z,6.83
2023-02-06T00:46:36.386Z,7.20
2023-02-06T00:47:37.713Z,7.63
2023-02-06T00:48:39.113Z,8.13
2023-02-06T00:49:40.460Z,7.80
2023-02-06T00:50:42.160Z,8.13
2023-02-06T00:51:43.463Z,8.00
2023-02-06T00:52:44.977Z,8.03
2023-02-06T00:53:46.315Z,7.87
2023-02-06T00:54:47.894Z,8.20
2023-02-06T00:55:49.235Z,7.57
2023-02-06T00:56:50.546Z,7.90
2023-02-06T00:57:51.896Z,7.43
2023-02-06T00:58:53.255Z,7.40
2023-02-06T00:59:54.555Z,7.83
2023-02-06T01:00:55.886Z,7.93
2023-02-06T01:01:58.047Z,8.23
2023-02-06T01:02:59.452Z,8.30
2023-02-06T01:04:01.031Z,8.00
2023-02-06T01:05:02.538Z,8.00
2023-02-06T01:06:04.013Z,8.40
2023-02-06T01:07:05.320Z,7.87
2023-02-06T01:08:06.745Z,8.40
2023-02-06T01:09:08.095Z,8.47
2023-02-06T01:10:10.260Z,8.70
2023-02-06T01:11:15.539Z,9.07
2023-02-06T01:12:16.935Z,8.20
2023-02-06T01:13:18.269Z,9.10
2023-02-06T01:14:19.660Z,8.63
2023-02-06T01:15:20.994Z,8.67
2023-02-06T01:16:24.060Z,8.40
2023-02-06T01:17:28.483Z,8.07
2023-02-06T01:18:29.806Z,7.97
2023-02-06T01:19:31.148Z,8.13
2023-02-06T01:20:32.531Z,8.30
2023-02-06T01:21:33.890Z,8.23
2023-02-06T01:22:35.543Z,8.60
2023-02-06T01:23:37.544Z,7.93
2023-02-06T01:24:38.841Z,8.10
2023-02-06T01:25:40.146Z,8.10
2023-02-06T01:26:41.476Z,8.10
2023-02-06T01:27:42.926Z,7.83
2023-02-06T01:28:45.117Z,7.70
2023-02-06T01:29:46.412Z,7.57
2023-02-06T01:30:47.847Z,8.27
2023-02-06T01:31:49.218Z,8.57
2023-02-06T01:32:51.825Z,8.37
2023-02-06T01:33:53.442Z,8.30
2023-02-06T01:34:54.716Z,8.30
2023-02-06T01:35:56.587Z,12.90
2023-02-06T01:36:57.954Z,9.30
2023-02-06T01:37:59.248Z,8.63
2023-02-06T01:39:00.594Z,8.63
2023-02-06T01:40:02.252Z,8.80
2023-02-06T01:41:03.899Z,8.70
2023-02-06T01:42:05.305Z,8.87
2023-02-06T01:43:14.070Z,8.43
2023-02-06T01:44:17.203Z,8.67
2023-02-06T01:45:21.484Z,8.67
2023-02-06T01:46:22.841Z,8.67
2023-02-06T01:47:24.256Z,9.23
2023-02-06T01:48:31.319Z,8.87
2023-02-06T01:49:34.814Z,8.57
2023-02-06T01:50:37.114Z,8.67
2023-02-06T01:51:38.504Z,8.77
2023-02-06T01:52:39.932Z,9.33
2023-02-06T01:53:42.299Z,8.73
2023-02-06T01:54:44.576Z,9.70
2023-02-06T01:55:47.282Z,9.33
2023-02-06T01:56:51.524Z,8.70
2023-02-06T01:57:52.839Z,9.27
2023-02-06T01:58:58.267Z,8.53
2023-02-06T02:00:02.650Z,9.40
2023-02-06T02:01:12.867Z,9.47
2023-02-06T02:02:14.318Z,9.07
2023-02-06T02:03:15.658Z,9.23
2023-02-06T02:04:19.800Z,9.27
2023-02-06T02:05:21.158Z,9.63
2023-02-06T02:06:24.213Z,9.47
2023-02-06T02:07:41.286Z,9.67
2023-02-06T02:08:43.905Z,9.70
2023-02-06T02:09:45.842Z,9.53
2023-02-06T02:10:47.670Z,8.80
2023-02-06T02:11:50.411Z,9.20
2023-02-06T02:12:51.694Z,9.47
2023-02-06T02:13:54.009Z,9.03
2023-02-06T02:14:55.811Z,9.27
2023-02-06T02:16:02.808Z,9.20
2023-02-06T02:17:19.545Z,9.20
2023-02-06T02:18:26.731Z,9.33
2023-02-06T02:19:46.984Z,9.27
2023-02-06T02:21:16.075Z,9.47
2023-02-06T02:22:23.972Z,9.67
2023-02-06T02:23:28.196Z,9.37
2023-02-06T02:24:31.768Z,9.23
2023-02-06T02:25:45.349Z,10.27
2023-02-06T02:26:56.857Z,9.60
2023-02-06T02:28:04.160Z,10.00
2023-02-06T02:29:14.732Z,9.70
2023-02-06T02:30:35.106Z,9.07
2023-02-06T02:31:55.001Z,9.97
2023-02-06T02:33:14.643Z,9.57
2023-02-06T02:34:28.166Z,9.50
2023-02-06T02:35:43.167Z,9.50
2023-02-06T02:36:52.835Z,9.73
2023-02-06T02:38:03.333Z,8.97
2023-02-06T02:39:23.267Z,10.10
2023-02-06T02:40:44.655Z,9.30
2023-02-06T02:41:53.133Z,9.30
2023-02-06T02:42:54.856Z,9.47
2023-02-06T02:44:15.533Z,8.93
2023-02-06T02:45:23.964Z,9.20
2023-02-06T02:46:40.260Z,9.90
2023-02-06T02:47:47.285Z,9.30
2023-02-06T02:48:49.976Z,8.97
2023-02-06T02:49:52.883Z,9.00
2023-02-06T02:50:54.966Z,9.90
2023-02-06T02:51:57.132Z,9.23
2023-02-06T02:52:59.494Z,9.07
2023-02-06T02:54:00.898Z,10.17
2023-02-06T02:55:13.794Z,10.47
2023-02-06T02:56:22.177Z,9.73
2023-02-06T02:57:26.966Z,10.30
2023-02-06T02:58:31.447Z,10.30
2023-02-06T02:59:36.308Z,10.50
2023-02-06T03:00:43.224Z,10.33
2023-02-06T03:01:53.464Z,10.20
2023-02-06T03:02:56.533Z,10.40
2023-02-06T03:04:00.117Z,10.40
2023-02-06T03:05:04.231Z,10.07
2023-02-06T03:06:10.026Z,10.10
2023-02-06T03:07:12.376Z,10.40
2023-02-06T03:08:25.332Z,9.80
2023-02-06T03:09:32.248Z,10.27
2023-02-06T03:10:33.907Z,10.33
2023-02-06T03:11:37.534Z,10.10
2023-02-06T03:12:47.555Z,10.73
2023-02-06T03:13:51.771Z,10.40
2023-02-06T03:14:59.597Z,10.53
2023-02-06T03:16:14.324Z,10.17
2023-02-06T03:17:19.379Z,10.10
2023-02-06T03:18:28.095Z,10.07
2023-02-06T03:19:31.533Z,10.27
2023-02-06T03:20:33.864Z,9.93
2023-02-06T03:21:36.302Z,9.97
2023-02-06T03:22:38.485Z,10.47
2023-02-06T03:23:41.237Z,10.30
2023-02-06T03:24:42.586Z,10.03
2023-02-06T03:25:45.412Z,10.57
2023-02-06T03:26:48.818Z,10.30
2023-02-06T03:27:50.534Z,10.20
2023-02-06T03:28:53.912Z,9.63
2023-02-06T03:29:56.778Z,10.30
2023-02-06T03:30:59.517Z,10.20
2023-02-06T03:32:03.423Z,10.83
2023-02-06T03:33:07.464Z,10.20
2023-02-06T03:34:18.510Z,10.73
2023-02-06T03:35:21.231Z,10.00
2023-02-06T03:36:22.700Z,9.97
2023-02-06T03:37:24.452Z,10.50
2023-02-06T03:38:27.655Z,10.00
2023-02-06T03:39:29.067Z,9.77
2023-02-06T03:40:30.621Z,9.87
2023-02-06T03:41:35.858Z,10.30
2023-02-06T03:42:41.820Z,9.77
2023-02-06T03:43:45.503Z,10.33
2023-02-06T03:44:48.663Z,9.37
2023-02-06T03:45:52.031Z,10.07
2023-02-06T03:46:54.271Z,9.43
2023-02-06T03:47:58.369Z,9.40
2023-02-06T03:49:01.215Z,10.27
2023-02-06T03:50:02.621Z,10.00
2023-02-06T03:51:07.977Z,9.77
2023-02-06T03:52:10.738Z,9.97
2023-02-06T03:53:13.059Z,9.87
2023-02-06T03:54:16.835Z,10.33
2023-02-06T03:55:19.857Z,10.40
2023-02-06T03:56:41.977Z,10.73
2023-02-06T03:57:45.066Z,9.80
2023-02-06T03:58:46.363Z,9.00
2023-02-06T03:59:47.972Z,9.83
2023-02-06T04:00:49.670Z,10.57
2023-02-06T04:01:58.608Z,9.60
2023-02-06T04:03:00.393Z,10.20
2023-02-06T04:04:03.305Z,10.57
2023-02-06T04:05:05.023Z,10.47
2023-02-06T04:06:06.459Z,10.07
2023-02-06T04:07:19.683Z,9.73
2023-02-06T04:08:21.247Z,10.00
2023-02-06T04:09:22.731Z,9.93
2023-02-06T04:10:26.201Z,10.43
2023-02-06T04:11:27.902Z,10.07
2023-02-06T04:12:29.352Z,9.97
2023-02-06T04:13:30.935Z,9.83
2023-02-06T04:14:32.451Z,9.83
2023-02-06T04:15:34.324Z,9.67
2023-02-06T04:16:35.860Z,9.70
2023-02-06T04:17:58.963Z,9.27
2023-02-06T04:18:58.715Z,9.87
2023-02-06T04:20:00.104Z,10.27
2023-02-06T04:21:05.517Z,10.00
2023-02-06T04:22:07.171Z,9.50
2023-02-06T04:23:08.745Z,9.10
2023-02-06T04:24:10.076Z,9.30
2023-02-06T04:25:11.473Z,9.73
2023-02-06T04:26:12.828Z,9.83
2023-02-06T04:27:14.580Z,9.17
2023-02-06T04:28:15.929Z,8.90
2023-02-06T04:29:17.291Z,8.27
2023-02-06T04:30:18.723Z,8.53
2023-02-06T04:31:20.173Z,8.70
2023-02-06T04:32:21.647Z,8.80
2023-02-06T04:33:23.017Z,8.57
2023-02-06T04:34:24.310Z,8.27
2023-02-06T04:35:25.676Z,9.10
2023-02-06T04:36:26.964Z,9.20
2023-02-06T04:37:28.320Z,9.10
2023-02-06T04:38:29.630Z,9.00
2023-02-06T04:39:31.203Z,9.80
2023-02-06T04:40:32.519Z,9.53
2023-02-06T04:41:34.195Z,9.87
2023-02-06T04:42:35.611Z,9.30
2023-02-06T04:43:36.911Z,9.73
2023-02-06T04:44:38.482Z,9.90
2023-02-06T04:45:41.918Z,9.43
2023-02-06T04:46:43.551Z,8.90
2023-02-06T04:47:44.991Z,10.03
2023-02-06T04:48:46.936Z,9.50
2023-02-06T04:49:48.250Z,9.40
2023-02-06T04:50:50.154Z,9.60
2023-02-06T04:51:51.527Z,10.00
2023-02-06T04:52:52.807Z,10.53
2023-02-06T04:53:57.790Z,10.20
2023-02-06T04:55:00.256Z,9.67
2023-02-06T04:56:09.284Z,9.73
2023-02-06T04:57:10.742Z,9.53
2023-02-06T04:58:12.298Z,10.17
2023-02-06T04:59:13.641Z,9.33
2023-02-06T05:00:15.312Z,9.83
2023-02-06T05:01:17.204Z,9.27
2023-02-06T05:02:18.669Z,9.67
2023-02-06T05:03:20.014Z,9.27
2023-02-06T05:04:21.339Z,9.53
2023-02-06T05:05:22.648Z,9.67
2023-02-06T05:06:24.374Z,9.00
2023-02-06T05:07:25.775Z,9.07
2023-02-06T05:08:27.168Z,9.10
2023-02-06T05:09:28.492Z,9.43
2023-02-06T05:10:29.845Z,9.37
2023-02-06T05:11:31.256Z,10.20
2023-02-06T05:12:32.631Z,9.87
2023-02-06T05:13:34.439Z,9.90
2023-02-06T05:14:35.747Z,9.77
2023-02-06T05:15:37.740Z,9.83
2023-02-06T05:16:39.331Z,9.50
2023-02-06T05:17:40.754Z,10.30
2023-02-06T05:18:44.351Z,10.40
2023-02-06T05:19:45.716Z,10.23
2023-02-06T05:20:47.119Z,9.60
2023-02-06T05:21:48.520Z,9.60
2023-02-06T05:22:49.881Z,9.63
2023-02-06T05:23:51.301Z,10.70
2023-02-06T05:24:52.843Z,11.07
2023-02-06T05:25:54.340Z,9.50
2023-02-06T05:26:57.845Z,9.53
2023-02-06T05:27:59.911Z,9.50
2023-02-06T05:29:01.216Z,9.90
2023-02-06T05:30:02.654Z,10.30
2023-02-06T05:31:04.163Z,9.67
2023-02-06T05:32:05.632Z,9.67
2023-02-06T05:33:06.990Z,10.53
2023-02-06T05:34:09.309Z,10.20
2023-02-06T05:35:13.765Z,10.03
2023-02-06T05:36:15.255Z,9.67
2023-02-06T05:37:16.618Z,9.93
2023-02-06T05:38:18.167Z,10.20
2023-02-06T05:39:19.657Z,10.03
2023-02-06T05:40:22.533Z,10.23
2023-02-06T05:41:24.097Z,10.00
2023-02-06T05:42:25.471Z,9.57
2023-02-06T05:43:28.064Z,9.97
2023-02-06T05:44:29.365Z,10.33
2023-02-06T05:45:30.666Z,9.70
2023-02-06T05:46:41.805Z,9.83
2023-02-06T05:47:47.812Z,9.70
2023-02-06T05:48:49.146Z,9.60
2023-02-06T05:49:50.588Z,10.47
2023-02-06T05:50:51.975Z,10.13
2023-02-06T05:51:54.906Z,10.60
2023-02-06T05:52:56.352Z,9.77
2023-02-06T05:53:57.698Z,9.37
2023-02-06T05:55:00.660Z,11.10
2023-02-06T05:56:02.209Z,11.33
2023-02-06T05:57:04.130Z,11.57
2023-02-06T05:58:06.425Z,13.20
2023-02-06T05:59:07.964Z,13.23
2023-02-06T06:00:09.841Z,14.30
2023-02-06T06:01:16.707Z,13.50
2023-02-06T06:02:21.142Z,13.70
2023-02-06T06:03:22.661Z,11.80
2023-02-06T06:04:26.269Z,12.57
2023-02-06T06:05:27.729Z,13.30
2023-02-06T06:06:31.182Z,14.30
2023-02-06T06:07:34.806Z,15.47
2023-02-06T06:08:36.267Z,15.23
2023-02-06T06:09:37.557Z,15.27
2023-02-06T06:10:38.939Z,13.57
2023-02-06T06:11:42.858Z,11.97
2023-02-06T06:12:44.168Z,12.90
2023-02-06T06:13:45.570Z,12.60
2023-02-06T06:14:49.877Z,12.37
2023-02-06T06:15:55.186Z,11.70
2023-02-06T06:16:56.694Z,11.83
2023-02-06T06:18:00.306Z,11.77
2023-02-06T06:19:02.230Z,11.13
2023-02-06T06:20:04.381Z,11.90
2023-02-06T06:21:05.909Z,11.47
2023-02-06T06:22:07.399Z,11.47
2023-02-06T06:23:08.860Z,11.43
2023-02-06T06:24:10.648Z,11.87
2023-02-06T06:25:13.572Z,10.63
2023-02-06T06:26:15.008Z,11.03
2023-02-06T06:27:16.391Z,11.57
2023-02-06T06:28:17.830Z,11.57
2023-02-06T06:29:19.189Z,11.57
2023-02-06T06:30:20.509Z,11.67
2023-02-06T06:31:27.348Z,11.77
2023-02-06T06:32:28.938Z,12.17
2023-02-06T06:33:36.325Z,12.27
2023-02-06T06:34:48.695Z,13.07
2023-02-06T06:35:55.613Z,12.73
2023-02-06T06:36:57.022Z,12.90
2023-02-06T06:37:58.376Z,12.20
2023-02-06T06:39:02.932Z,12.50
2023-02-06T06:40:05.168Z,12.27
2023-02-06T06:41:10.744Z,12.07
2023-02-06T06:42:12.173Z,12.27
2023-02-06T06:43:13.683Z,11.87
2023-02-06T06:44:15.010Z,11.70
2023-02-06T06:45:16.466Z,10.87
2023-02-06T06:46:18.931Z,11.40
2023-02-06T06:47:20.663Z,11.07
2023-02-06T06:48:22.309Z,10.83
2023-02-06T06:49:28.228Z,11.10
2023-02-06T06:50:30.428Z,11.80
2023-02-06T06:51:31.799Z,10.80
2023-02-06T06:52:33.183Z,11.33
2023-02-06T06:53:34.590Z,10.97
2023-02-06T06:54:35.928Z,10.43
2023-02-06T06:55:37.450Z,10.23
2023-02-06T06:56:38.906Z,10.00
2023-02-06T06:57:40.334Z,10.13
2023-02-06T06:58:42.032Z,9.97
2023-02-06T06:59:43.402Z,12.27
2023-02-06T07:00:44.908Z,11.57
2023-02-06T07:01:46.467Z,11.20
2023-02-06T07:02:51.311Z,9.93
2023-02-06T07:03:52.653Z,10.30
2023-02-06T07:04:53.984Z,10.53
2023-02-06T07:05:55.379Z,11.07
2023-02-06T07:06:56.720Z,10.80
2023-02-06T07:07:58.086Z,9.93
2023-02-06T07:09:01.771Z,10.20
2023-02-06T07:10:03.274Z,11.13
2023-02-06T07:11:04.708Z,11.53
2023-02-06T07:12:06.163Z,11.47
2023-02-06T07:13:07.485Z,10.57
2023-02-06T07:14:08.830Z,11.17
2023-02-06T07:15:10.311Z,10.97
2023-02-06T07:16:12.074Z,10.63
2023-02-06T07:17:13.498Z,10.43
2023-02-06T07:18:14.844Z,11.00
2023-02-06T07:19:16.209Z,10.77
2023-02-06T07:20:17.628Z,10.93
2023-02-06T07:21:19.888Z,10.60
2023-02-06T07:22:21.476Z,10.67
2023-02-06T07:23:22.923Z,10.50
2023-02-06T07:24:24.392Z,9.93
2023-02-06T07:25:25.735Z,9.87
2023-02-06T07:26:27.039Z,10.77
2023-02-06T07:27:28.360Z,9.83
2023-02-06T07:28:30.308Z,10.23
2023-02-06T07:29:31.679Z,9.87
2023-02-06T07:30:33.062Z,9.73
2023-02-06T07:31:34.498Z,9.73
2023-02-06T07:32:36.752Z,11.23
2023-02-06T07:33:38.112Z,10.57
2023-02-06T07:34:40.566Z,10.10
2023-02-06T07:35:41.886Z,9.30
2023-02-06T07:36:43.208Z,9.03
2023-02-06T07:37:44.585Z,10.50
2023-02-06T07:38:45.953Z,10.90
2023-02-06T07:39:47.272Z,10.43
2023-02-06T07:40:48.565Z,9.70
2023-02-06T07:41:50.790Z,10.60
2023-02-06T07:42:54.423Z,10.30
2023-02-06T07:44:02.015Z,9.87
2023-02-06T07:45:03.413Z,10.70
2023-02-06T07:46:04.984Z,10.13
2023-02-06T07:47:08.420Z,10.50
2023-02-06T07:48:09.867Z,10.40
2023-02-06T07:49:11.943Z,10.30
2023-02-06T07:50:13.223Z,12.57
2023-02-06T07:51:14.597Z,11.50
2023-02-06T07:52:15.939Z,12.70
2023-02-06T07:53:17.251Z,13.33
2023-02-06T07:54:20.746Z,11.00
2023-02-06T07:55:22.375Z,10.70
2023-02-06T07:56:25.064Z,10.70
2023-02-06T07:57:26.383Z,10.20
2023-02-06T07:58:27.688Z,10.07
2023-02-06T07:59:29.016Z,9.90
2023-02-06T08:00:30.437Z,9.27
2023-02-06T08:01:31.878Z,8.73
2023-02-06T08:02:33.206Z,8.73
2023-02-06T08:03:34.618Z,9.13
2023-02-06T08:04:36.023Z,8.17
2023-02-06T08:05:38.178Z,8.10
2023-02-06T08:06:42.999Z,8.13
2023-02-06T08:07:44.294Z,8.03
2023-02-06T08:08:46.143Z,8.23
2023-02-06T08:09:47.555Z,8.03
2023-02-06T08:10:49.519Z,7.93
2023-02-06T08:11:51.118Z,7.97
2023-02-06T08:12:52.464Z,8.03
2023-02-06T08:13:54.030Z,8.13
2023-02-06T08:14:55.368Z,8.20
2023-02-06T08:15:56.734Z,10.13
2023-02-06T08:16:58.260Z,11.50
2023-02-06T08:17:59.664Z,10.93
2023-02-06T08:19:01.159Z,9.83
2023-02-06T08:20:02.548Z,9.27
2023-02-06T08:21:05.230Z,8.27
2023-02-06T08:22:06.565Z,8.47
2023-02-06T08:23:08.069Z,8.00
2023-02-06T08:24:11.014Z,8.00
2023-02-06T08:25:12.321Z,9.13
2023-02-06T08:26:15.753Z,9.40
2023-02-06T08:27:17.113Z,9.60
2023-02-06T08:28:18.415Z,9.50
2023-02-06T08:29:19.925Z,9.57
2023-02-06T08:30:21.602Z,9.70
2023-02-06T08:31:23.184Z,9.80
2023-02-06T08:32:32.058Z,9.63
2023-02-06T08:33:33.361Z,10.20
2023-02-06T08:34:35.109Z,10.87
2023-02-06T08:35:36.666Z,10.13
2023-02-06T08:36:38.181Z,9.80
2023-02-06T08:37:40.828Z,10.57
2023-02-06T08:38:42.248Z,9.70
2023-02-06T08:39:43.621Z,10.43
2023-02-06T08:40:44.925Z,10.00
2023-02-06T08:41:46.312Z,11.00
2023-02-06T08:42:49.485Z,10.80
2023-02-06T08:43:51.907Z,10.63
2023-02-06T08:44:53.793Z,10.63
2023-02-06T08:45:59.422Z,10.27
2023-02-06T08:47:09.773Z,9.00
2023-02-06T08:48:11.871Z,9.93
2023-02-06T08:49:15.028Z,8.87
2023-02-06T08:50:16.489Z,9.40
2023-02-06T08:51:17.882Z,8.90
2023-02-06T08:52:19.243Z,8.90
2023-02-06T08:53:20.683Z,9.03
2023-02-06T08:54:22.948Z,8.80
2023-02-06T08:55:25.271Z,9.73
2023-02-06T08:56:27.537Z,10.07
2023-02-06T08:57:28.916Z,9.30
2023-02-06T08:58:30.682Z,9.33
2023-02-06T08:59:32.141Z,9.93
2023-02-06T09:00:33.695Z,9.30
2023-02-06T09:01:35.869Z,9.17
2023-02-06T09:02:37.265Z,9.80
2023-02-06T09:03:38.604Z,9.60
2023-02-06T09:04:39.982Z,9.57
2023-02-06T09:05:41.288Z,9.60
2023-02-06T09:06:43.744Z,9.80
2023-02-06T09:07:45.163Z,9.30
2023-02-06T09:08:46.452Z,9.60
2023-02-06T09:09:47.835Z,9.43
2023-02-06T09:10:49.162Z,9.73
2023-02-06T09:11:50.486Z,10.20
2023-02-06T09:12:53.136Z,9.17
2023-02-06T09:13:55.775Z,9.70
2023-02-06T09:14:57.124Z,9.10
2023-02-06T09:15:58.492Z,9.53
2023-02-06T09:16:59.903Z,9.97
2023-02-06T09:18:01.289Z,9.77
2023-02-06T09:19:02.787Z,9.60
2023-02-06T09:20:05.229Z,9.93
2023-02-06T09:21:07.748Z,9.73
2023-02-06T09:22:09.071Z,9.03
2023-02-06T09:23:10.444Z,10.03
2023-02-06T09:24:11.864Z,10.17
2023-02-06T09:25:13.198Z,9.93
2023-02-06T09:26:16.892Z,10.03
2023-02-06T09:27:18.287Z,10.23
2023-02-06T09:28:19.747Z,10.87
2023-02-06T09:29:21.126Z,12.40
2023-02-06T09:30:23.377Z,12.73
2023-02-06T09:31:25.592Z,13.90
2023-02-06T09:32:26.990Z,13.63
2023-02-06T09:33:28.330Z,13.77
2023-02-06T09:34:29.995Z,13.73
2023-02-06T09:35:31.405Z,12.57
2023-02-06T09:36:34.518Z,11.43
2023-02-06T09:37:36.512Z,11.73
2023-02-06T09:38:41.503Z,11.27
2023-02-06T09:39:42.835Z,10.17
2023-02-06T09:40:44.193Z,11.40
2023-02-06T09:41:47.338Z,10.90
2023-02-06T09:42:48.736Z,10.83
2023-02-06T09:43:54.736Z,11.60
2023-02-06T09:45:12.801Z,12.87
2023-02-06T09:46:14.831Z,12.83
2023-02-06T09:47:35.981Z,10.60
2023-02-06T09:48:39.259Z,11.63
2023-02-06T09:50:05.446Z,10.97
2023-02-06T09:51:12.251Z,11.10
2023-02-06T09:52:52.244Z,10.60
2023-02-06T09:54:05.431Z,10.40
2023-02-06T09:55:06.731Z,10.60
2023-02-06T09:56:26.512Z,10.50
2023-02-06T09:57:46.257Z,10.47
2023-02-06T09:58:53.258Z,10.90
2023-02-06T09:59:58.276Z,10.10
2023-02-06T10:01:02.205Z,10.17
2023-02-06T10:02:20.316Z,9.70
2023-02-06T10:03:36.652Z,9.53
2023-02-06T10:04:42.018Z,9.57
2023-02-06T10:05:49.578Z,9.60
2023-02-06T10:06:53.639Z,10.23
2023-02-06T10:07:57.988Z,9.07
2023-02-06T10:08:59.367Z,10.70
2023-02-06T10:10:12.373Z,11.27
2023-02-06T10:11:19.475Z,9.80
2023-02-06T10:12:26.982Z,10.37
2023-02-06T10:13:49.626Z,10.10
2023-02-06T10:14:53.967Z,9.17
2023-02-06T10:15:57.654Z,9.77
2023-02-06T10:17:04.488Z,9.00
2023-02-06T10:18:12.352Z,9.27
2023-02-06T10:19:29.046Z,8.80
2023-02-06T10:20:33.301Z,9.33
2023-02-06T10:21:41.353Z,9.07
2023-02-06T10:23:01.463Z,9.03
2023-02-06T10:24:05.662Z,9.07
2023-02-06T10:25:27.288Z,9.43
2023-02-06T10:26:28.982Z,9.23
2023-02-06T10:27:32.089Z,8.83
2023-02-06T10:28:35.262Z,8.80
2023-02-06T10:29:36.907Z,9.13
2023-02-06T10:30:57.144Z,8.53
2023-02-06T10:32:17.622Z,9.27
2023-02-06T10:33:25.991Z,9.40
2023-02-06T10:34:34.557Z,8.57
2023-02-06T10:35:51.301Z,8.80
2023-02-06T10:37:01.234Z,9.27
2023-02-06T10:38:05.783Z,9.90
2023-02-06T10:39:31.305Z,9.27
2023-02-06T10:40:43.454Z,8.30
2023-02-06T10:41:47.704Z,8.50
2023-02-06T10:43:07.600Z,8.80
2023-02-06T10:44:27.897Z,8.53
2023-02-06T10:45:48.057Z,9.10
2023-02-06T10:46:50.982Z,8.50
2023-02-06T10:47:54.294Z,9.27
2023-02-06T10:49:06.460Z,8.20
2023-02-06T10:50:14.423Z,7.40
2023-02-06T10:51:15.737Z,7.37
2023-02-06T10:52:23.288Z,7.10
2023-02-06T10:53:30.310Z,7.43
2023-02-06T10:54:34.727Z,8.73
2023-02-06T10:55:41.377Z,10.27
2023-02-06T10:56:44.389Z,8.97
2023-02-06T10:57:47.016Z,9.83
2023-02-06T10:58:51.181Z,10.20
2023-02-06T10:59:53.967Z,9.00
2023-02-06T11:00:55.961Z,8.73
2023-02-06T11:02:09.224Z,9.10
2023-02-06T11:03:14.228Z,9.60
2023-02-06T11:04:19.161Z,8.23
2023-02-06T11:05:22.688Z,8.87
2023-02-06T11:06:25.681Z,9.60
2023-02-06T11:07:29.551Z,10.77
2023-02-06T11:08:36.006Z,9.87
2023-02-06T11:09:37.329Z,9.87
2023-02-06T11:10:39.471Z,10.57
2023-02-06T11:11:42.244Z,10.53
2023-02-06T11:13:02.219Z,11.27
2023-02-06T11:14:15.929Z,11.60
2023-02-06T11:15:23.625Z,12.03
2023-02-06T11:16:26.366Z,11.40
2023-02-06T11:17:28.363Z,11.83
2023-02-06T11:18:33.557Z,11.63
2023-02-06T11:19:38.302Z,11.97
2023-02-06T11:20:41.566Z,10.53
2023-02-06T11:21:47.559Z,10.70
2023-02-06T11:22:53.094Z,9.03
2023-02-06T11:24:14.789Z,9.93
2023-02-06T11:25:19.196Z,9.07
2023-02-06T11:26:22.512Z,8.87
2023-02-06T11:27:24.392Z,9.03
2023-02-06T11:28:25.905Z,9.33
2023-02-06T11:29:29.013Z,8.20
2023-02-06T11:30:33.458Z,8.77
2023-02-06T11:31:44.787Z,7.77
2023-02-06T11:32:59.050Z,6.90
2023-02-06T11:34:05.365Z,7.00
2023-02-06T11:35:22.509Z,7.93
2023-02-06T11:36:27.122Z,7.67
2023-02-06T11:37:32.227Z,7.17
2023-02-06T11:38:34.077Z,7.87
2023-02-06T11:39:39.062Z,7.23
2023-02-06T11:40:40.606Z,6.87
2023-02-06T11:41:55.661Z,7.10
2023-02-06T11:43:09.411Z,5.67
2023-02-06T11:44:13.390Z,7.03
2023-02-06T11:45:23.261Z,6.37
2023-02-06T11:46:26.144Z,6.17
2023-02-06T11:47:30.223Z,6.60
2023-02-06T11:48:36.235Z,6.03
2023-02-06T11:49:37.595Z,6.60
2023-02-06T11:50:41.216Z,6.00
2023-02-06T11:51:51.282Z,6.27
2023-02-06T11:52:58.114Z,6.47
2023-02-06T11:54:01.253Z,6.10
2023-02-06T11:55:02.896Z,6.20
2023-02-06T11:56:24.497Z,6.33
2023-02-06T11:57:26.818Z,6.53
2023-02-06T11:58:28.903Z,5.47
2023-02-06T11:59:33.821Z,6.40
2023-02-06T12:00:37.005Z,5.83
2023-02-06T12:01:42.358Z,5.87
2023-02-06T12:02:49.740Z,5.80
2023-02-06T12:03:51.048Z,5.00
2023-02-06T12:04:57.026Z,4.53
2023-02-06T12:06:03.016Z,4.77
2023-02-06T12:07:10.784Z,5.70
2023-02-06T12:08:14.079Z,4.93
2023-02-06T12:09:15.448Z,5.43
2023-02-06T12:10:18.049Z,4.20
2023-02-06T12:11:37.064Z,4.33
2023-02-06T12:12:41.890Z,4.83
2023-02-06T12:13:45.943Z,5.57
2023-02-06T12:15:36.150Z,5.10
2023-02-06T12:16:39.588Z,5.23
2023-02-06T12:17:43.704Z,5.20
2023-02-06T12:18:47.148Z,5.90
2023-02-06T12:19:50.409Z,4.47
2023-02-06T12:20:53.190Z,3.97
2023-02-06T12:21:56.803Z,3.90
2023-02-06T12:22:58.254Z,3.83
2023-02-06T12:24:01.257Z,3.93
2023-02-06T12:25:04.394Z,4.27
2023-02-06T12:26:08.682Z,5.10
2023-02-06T12:27:13.979Z,5.10
2023-02-06T12:28:55.000Z,4.47
2023-02-06T12:30:14.626Z,5.47
2023-02-06T12:31:19.740Z,5.00
2023-02-06T12:32:24.140Z,4.93
2023-02-06T12:33:35.800Z,5.60
2023-02-06T12:34:52.121Z,5.50
2023-02-06T12:35:59.507Z,5.20
2023-02-06T12:37:14.455Z,5.80
2023-02-06T12:38:34.827Z,5.17
2023-02-06T12:39:36.257Z,4.97
2023-02-06T12:40:48.212Z,4.60
2023-02-06T12:42:08.621Z,5.47
2023-02-06T12:43:11.789Z,4.70
2023-02-06T12:44:34.097Z,4.23
2023-02-06T12:45:53.974Z,4.70
2023-02-06T12:46:58.512Z,4.93
2023-02-06T12:48:13.303Z,4.90
2023-02-06T12:49:24.253Z,4.60
2023-02-06T12:50:32.426Z,4.27
2023-02-06T12:51:36.579Z,4.30
2023-02-06T12:52:40.673Z,3.80
2023-02-06T12:53:45.005Z,3.50
2023-02-06T12:54:49.052Z,3.40
2023-02-06T12:55:56.434Z,3.73
2023-02-06T12:57:04.789Z,4.00
2023-02-06T12:58:20.852Z,4.00
2023-02-06T12:59:41.591Z,3.60
2023-02-06T13:01:12.072Z,3.43
2023-02-06T13:02:28.722Z,4.00
2023-02-06T13:03:34.375Z,3.37
2023-02-06T13:04:37.263Z,3.87
2023-02-06T13:05:40.740Z,3.80
2023-02-06T13:06:51.258Z,4.37
2023-02-06T13:07:53.725Z,3.40
2023-02-06T13:08:56.599Z,3.70
2023-02-06T13:10:02.371Z,3.73
2023-02-06T13:11:05.949Z,4.93
2023-02-06T13:12:13.061Z,6.33
2023-02-06T13:13:25.469Z,6.23
2023-02-06T13:14:28.823Z,5.40
2023-02-06T13:15:53.029Z,4.20
2023-02-06T13:17:00.647Z,4.90
2023-02-06T13:18:02.060Z,5.17
2023-02-06T13:19:04.282Z,5.07
2023-02-06T13:20:07.358Z,4.37
2023-02-06T13:21:18.444Z,3.13
2023-02-06T13:22:20.095Z,3.77
2023-02-06T13:23:23.733Z,3.93
2023-02-06T13:24:25.091Z,3.60
2023-02-06T13:25:27.856Z,2.90
2023-02-06T13:26:48.943Z,3.37
2023-02-06T13:27:50.477Z,4.13
2023-02-06T13:28:58.531Z,4.10
2023-02-06T13:30:16.256Z,4.00
2023-02-06T13:31:22.523Z,2.90
2023-02-06T13:32:23.947Z,2.87
2023-02-06T13:33:25.677Z,3.50
2023-02-06T13:34:27.050Z,3.63
2023-02-06T13:35:29.430Z,3.60
2023-02-06T13:36:41.381Z,3.90
2023-02-06T13:37:48.272Z,3.10
2023-02-06T13:38:53.695Z,3.20
2023-02-06T13:40:20.823Z,3.50
2023-02-06T13:41:27.953Z,3.50
2023-02-06T13:42:35.284Z,3.70
2023-02-06T13:43:37.421Z,3.73
2023-02-06T13:44:39.126Z,3.50
2023-02-06T13:45:49.255Z,3.10
2023-02-06T13:46:56.615Z,3.37
2023-02-06T13:48:10.309Z,3.30
2023-02-06T13:49:11.784Z,3.47
2023-02-06T13:50:19.152Z,3.20
2023-02-06T13:51:23.557Z,3.20
2023-02-06T13:52:29.005Z,3.33
2023-02-06T13:53:33.597Z,3.10
2023-02-06T13:54:42.344Z,3.07
2023-02-06T13:55:43.702Z,2.90
2023-02-06T13:56:54.303Z,3.10
2023-02-06T13:58:13.134Z,3.07
2023-02-06T13:59:20.718Z,3.10
2023-02-06T14:00:23.829Z,3.23
2023-02-06T14:01:28.285Z,2.97
2023-02-06T14:02:44.165Z,3.53
2023-02-06T14:03:50.203Z,3.30
2023-02-06T14:04:51.616Z,3.43
2023-02-06T14:06:10.830Z,3.10
2023-02-06T14:07:35.040Z,2.93
2023-02-06T14:08:43.739Z,3.13
2023-02-06T14:10:05.144Z,3.40